Terminal Aerodrome Forecast
Issued by NWS Louisville, KY

Home | Current Version | Previous Version | Text Only | Print | Product List | Glossary On
Versions: 1 2 3 4 5 6 7 8 9 10 11 12 13 14 15 16 17 18 19 20
816
FTUS43 KLMK 290520
TAFSDF
TAF
KSDF 290520Z 2906/3012 24004KT P6SM FEW020 SCT050 BKN250
      TEMPO 2911/2913 5SM BR
     FM291700 25011KT P6SM SCT070 BKN250
     FM300100 24007KT P6SM BKN070=

USA.gov is the U.S. government's official web portal to all federal, state and local government web resources and services.